createdAt,value
2018-09-15T00:01:18.434Z,29.80
2018-09-15T00:04:22.061Z,27.20
2018-09-15T00:07:25.808Z,28.70
2018-09-15T00:10:29.431Z,27.73
2018-09-15T00:13:33.096Z,30.40
2018-09-15T00:16:36.815Z,26.13
2018-09-15T00:19:40.478Z,30.00
2018-09-15T00:22:44.230Z,23.70
2018-09-15T00:25:47.900Z,25.40
2018-09-15T00:28:51.533Z,23.67
2018-09-15T00:31:55.277Z,29.57
2018-09-15T00:34:58.896Z,26.70
2018-09-15T00:38:02.599Z,28.10
2018-09-15T00:41:06.364Z,26.40
2018-09-15T00:44:10.021Z,23.10
2018-09-15T00:47:13.640Z,28.87
2018-09-15T00:50:17.300Z,30.77
2018-09-15T00:53:20.916Z,26.00
2018-09-15T00:56:24.479Z,24.83
2018-09-15T00:59:28.167Z,26.40
2018-09-15T01:02:31.801Z,27.93
2018-09-15T01:05:35.587Z,29.17
2018-09-15T01:08:39.214Z,27.80
2018-09-15T01:11:43.171Z,27.80
2018-09-15T01:14:46.834Z,30.27
2018-09-15T01:17:50.534Z,30.53
2018-09-15T01:20:54.207Z,27.73
2018-09-15T01:23:57.799Z,33.43
2018-09-15T01:27:01.464Z,25.73
2018-09-15T01:30:05.242Z,27.43
2018-09-15T01:33:09.006Z,30.17
2018-09-15T01:36:12.821Z,31.50
2018-09-15T01:39:16.454Z,26.83
2018-09-15T01:42:20.070Z,25.20
2018-09-15T01:45:23.955Z,23.23
2018-09-15T01:48:27.614Z,25.67
2018-09-15T01:51:31.354Z,21.33
2018-09-15T01:54:35.063Z,23.00
2018-09-15T01:57:38.852Z,20.40
2018-09-15T02:00:42.804Z,22.57
2018-09-15T02:03:46.630Z,22.67
2018-09-15T02:06:50.590Z,18.80
2018-09-15T02:09:54.227Z,18.13
2018-09-15T02:12:58.005Z,18.93
2018-09-15T02:16:01.734Z,18.17
2018-09-15T02:19:05.375Z,19.80
2018-09-15T02:22:09.056Z,16.83
2018-09-15T02:25:12.642Z,22.07
2018-09-15T02:28:16.219Z,17.20
2018-09-15T02:31:19.969Z,15.77
2018-09-15T02:34:23.629Z,15.23
2018-09-15T02:37:27.382Z,15.80
2018-09-15T02:40:31.032Z,16.63
2018-09-15T02:43:34.700Z,22.03
2018-09-15T02:46:38.376Z,14.50
2018-09-15T02:49:41.999Z,12.87
2018-09-15T02:52:45.692Z,15.93
2018-09-15T02:55:49.326Z,13.73
2018-09-15T02:58:52.935Z,12.60
2018-09-15T03:01:56.664Z,14.20
2018-09-15T03:05:00.342Z,12.63
2018-09-15T03:08:04.033Z,14.20
2018-09-15T03:11:07.771Z,11.03
2018-09-15T03:14:11.414Z,13.03
2018-09-15T03:17:15.126Z,10.73
2018-09-15T03:20:18.821Z,12.70
2018-09-15T03:23:22.500Z,11.53
2018-09-15T03:26:26.099Z,13.70
2018-09-15T03:29:29.871Z,13.57
2018-09-15T03:32:33.533Z,13.47
2018-09-15T03:35:37.171Z,14.97
2018-09-15T03:38:40.847Z,13.80
2018-09-15T03:41:44.625Z,10.27
2018-09-15T03:44:48.133Z,11.27
2018-09-15T03:47:51.856Z,11.23
2018-09-15T03:50:55.425Z,12.10
2018-09-15T03:53:59.237Z,19.03
2018-09-15T03:57:02.915Z,19.03
2018-09-15T04:00:06.856Z,12.50
2018-09-15T04:03:10.593Z,12.17
2018-09-15T04:06:14.446Z,18.07
2018-09-15T04:09:18.159Z,14.50
2018-09-15T04:12:21.849Z,17.57
2018-09-15T04:15:25.756Z,19.17
2018-09-15T04:18:29.509Z,15.40
2018-09-15T04:21:33.291Z,17.13
2018-09-15T04:24:37.103Z,14.53
2018-09-15T04:27:41.055Z,16.43
2018-09-15T04:30:44.841Z,20.40
2018-09-15T04:33:48.830Z,18.93
2018-09-15T04:36:52.529Z,15.20
2018-09-15T04:39:56.249Z,19.07
2018-09-15T04:43:00.155Z,24.47
2018-09-15T04:46:03.900Z,15.20
2018-09-15T04:49:07.528Z,20.20
2018-09-15T04:52:11.381Z,22.10
2018-09-15T04:55:15.138Z,17.43
2018-09-15T04:58:18.946Z,16.73
2018-09-15T05:01:22.589Z,20.37
2018-09-15T05:04:26.177Z,20.93
2018-09-15T05:07:29.870Z,22.70
2018-09-15T05:10:33.549Z,19.07
2018-09-15T05:13:37.321Z,20.47
2018-09-15T05:16:41.079Z,17.50
2018-09-15T05:19:44.742Z,25.47
2018-09-15T05:22:48.520Z,19.00
2018-09-15T05:25:52.115Z,19.33
2018-09-15T05:28:55.977Z,18.93
2018-09-15T05:31:59.821Z,24.60
2018-09-15T05:35:03.621Z,22.03
2018-09-15T05:38:07.236Z,20.83
2018-09-15T05:41:11.965Z,19.60
2018-09-15T05:44:15.622Z,23.07
2018-09-15T05:47:19.299Z,21.50
2018-09-15T05:50:23.040Z,20.40
2018-09-15T05:53:27.138Z,20.83
2018-09-15T05:56:30.989Z,20.43
2018-09-15T05:59:34.913Z,31.97
2018-09-15T06:02:38.745Z,20.50
2018-09-15T06:05:42.556Z,21.20
2018-09-15T06:08:46.310Z,22.30
2018-09-15T06:11:50.030Z,23.50
2018-09-15T06:14:53.724Z,21.33
2018-09-15T06:17:57.541Z,19.30
2018-09-15T06:21:01.211Z,22.00
2018-09-15T06:24:05.475Z,23.37
2018-09-15T06:27:09.275Z,19.27
2018-09-15T06:30:13.105Z,20.10
2018-09-15T06:33:16.825Z,19.77
2018-09-15T06:36:20.728Z,18.47
2018-09-15T06:39:24.310Z,27.60
2018-09-15T06:42:28.121Z,20.10
2018-09-15T06:45:31.805Z,20.93
2018-09-15T06:48:35.454Z,22.33
2018-09-15T06:51:39.419Z,23.00
2018-09-15T06:54:43.135Z,26.80
2018-09-15T06:57:49.382Z,21.47
2018-09-15T07:00:53.106Z,19.97
2018-09-15T07:03:56.909Z,19.97
2018-09-15T07:07:00.668Z,31.73
2018-09-15T07:10:04.280Z,23.63
2018-09-15T07:13:08.204Z,26.23
2018-09-15T07:16:11.825Z,23.90
2018-09-15T07:19:15.584Z,17.50
2018-09-15T07:22:19.295Z,18.33
2018-09-15T07:25:23.515Z,16.80
2018-09-15T07:28:28.581Z,18.03
2018-09-15T07:31:32.323Z,20.47
2018-09-15T07:34:36.077Z,16.80
2018-09-15T07:37:43.356Z,22.83
2018-09-15T07:40:49.507Z,18.67
2018-09-15T07:43:53.311Z,26.77
2018-09-15T07:46:57.015Z,20.27
2018-09-15T07:50:00.755Z,19.67
2018-09-15T07:53:06.895Z,19.87
2018-09-15T07:56:10.814Z,20.07
2018-09-15T07:59:18.908Z,21.30
2018-09-15T08:02:24.754Z,21.23
2018-09-15T08:05:28.544Z,20.00
2018-09-15T08:08:32.134Z,18.57
2018-09-15T08:11:35.901Z,20.60
2018-09-15T08:14:39.705Z,15.30
2018-09-15T08:17:43.586Z,15.83
2018-09-15T08:20:47.227Z,22.27
2018-09-15T08:23:51.071Z,18.27
2018-09-15T08:26:54.709Z,14.70
2018-09-15T08:29:58.421Z,12.17
2018-09-15T08:33:02.127Z,16.60
2018-09-15T08:36:05.995Z,19.27
2018-09-15T08:39:10.280Z,19.33
2018-09-15T08:42:14.107Z,10.73
2018-09-15T08:45:18.371Z,14.33
2018-09-15T08:48:22.133Z,15.17
2018-09-15T08:51:32.122Z,14.50
2018-09-15T08:54:35.836Z,12.80
2018-09-15T08:57:39.460Z,12.00
2018-09-15T09:00:43.192Z,20.90
2018-09-15T09:03:46.923Z,14.73
2018-09-15T09:06:50.623Z,12.33
2018-09-15T09:09:54.310Z,12.30
2018-09-15T09:12:58.067Z,11.87
2018-09-15T09:16:01.891Z,14.60
2018-09-15T09:19:05.691Z,15.43
2018-09-15T09:22:09.427Z,11.93
2018-09-15T09:25:13.162Z,12.93
2018-09-15T09:28:16.881Z,10.87
2018-09-15T09:31:20.689Z,18.20
2018-09-15T09:34:24.490Z,13.10
2018-09-15T09:37:28.205Z,10.77
2018-09-15T09:40:31.926Z,13.50
2018-09-15T09:43:35.631Z,10.30
2018-09-15T09:46:39.313Z,13.20
2018-09-15T09:49:42.965Z,17.00
2018-09-15T09:52:46.734Z,12.47
2018-09-15T09:55:50.882Z,14.70
2018-09-15T09:58:54.601Z,15.43
2018-09-15T10:02:01.415Z,18.40
2018-09-15T10:05:05.195Z,16.20
2018-09-15T10:08:08.815Z,9.03
2018-09-15T10:11:12.581Z,21.90
2018-09-15T10:14:16.365Z,12.60
2018-09-15T10:17:20.171Z,14.00
2018-09-15T10:20:23.873Z,10.67
2018-09-15T10:23:27.608Z,11.57
2018-09-15T10:26:31.439Z,10.27
2018-09-15T10:29:35.184Z,11.07
2018-09-15T10:32:38.840Z,15.03
2018-09-15T10:35:42.659Z,12.80
2018-09-15T10:38:46.450Z,12.33
2018-09-15T10:41:50.201Z,12.47
2018-09-15T10:44:53.856Z,10.73
2018-09-15T10:47:57.651Z,10.40
2018-09-15T10:51:01.306Z,13.07
2018-09-15T10:54:05.029Z,8.63
2018-09-15T10:57:08.794Z,9.97
2018-09-15T11:00:12.482Z,11.90
2018-09-15T11:03:16.189Z,11.03
2018-09-15T11:06:20.064Z,10.40
2018-09-15T11:09:23.779Z,8.70
2018-09-15T11:12:27.581Z,11.00
2018-09-15T11:15:31.352Z,10.83
2018-09-15T11:18:35.170Z,9.80
2018-09-15T11:21:38.839Z,7.10
2018-09-15T11:24:42.546Z,11.50
2018-09-15T11:27:46.357Z,12.10
2018-09-15T11:30:50.608Z,13.53
2018-09-15T11:33:54.266Z,11.07
2018-09-15T11:36:58.069Z,8.70
2018-09-15T11:40:01.809Z,9.30
2018-09-15T11:43:05.889Z,14.40
2018-09-15T11:46:09.604Z,8.07
2018-09-15T11:49:13.306Z,14.93
2018-09-15T11:52:17.158Z,11.50
2018-09-15T11:55:20.915Z,11.67
2018-09-15T11:58:24.710Z,14.33
2018-09-15T12:01:28.520Z,9.30
2018-09-15T12:04:32.466Z,7.87
2018-09-15T12:07:36.145Z,10.50
2018-09-15T12:10:39.819Z,10.90
2018-09-15T12:13:43.780Z,9.17
2018-09-15T12:16:47.510Z,12.17
2018-09-15T12:19:51.255Z,8.83
2018-09-15T12:22:54.944Z,8.50
2018-09-15T12:25:58.688Z,9.60
2018-09-15T12:29:02.483Z,13.33
2018-09-15T12:32:06.529Z,9.30
2018-09-15T12:35:10.244Z,8.00
2018-09-15T12:38:14.060Z,6.47
2018-09-15T12:41:18.126Z,8.93
2018-09-15T12:44:21.891Z,8.93
2018-09-15T12:47:25.558Z,8.73
2018-09-15T12:50:29.530Z,7.47
2018-09-15T12:53:33.226Z,6.90
2018-09-15T12:56:36.928Z,13.20
2018-09-15T12:59:40.671Z,7.70
2018-09-15T13:02:44.357Z,8.30
2018-09-15T13:05:48.285Z,6.70
2018-09-15T13:08:52.024Z,8.20
2018-09-15T13:11:55.711Z,9.80
2018-09-15T13:14:59.411Z,15.77
2018-09-15T13:18:03.147Z,6.93
2018-09-15T13:21:06.822Z,8.10
2018-09-15T13:24:10.460Z,10.17
2018-09-15T13:27:14.132Z,10.63
2018-09-15T13:30:18.129Z,8.30
2018-09-15T13:33:21.707Z,11.37
2018-09-15T13:36:25.655Z,8.80
2018-09-15T13:39:29.385Z,9.57
2018-09-15T13:42:33.156Z,12.13
2018-09-15T13:45:36.839Z,10.80
2018-09-15T13:48:40.652Z,8.33
2018-09-15T13:51:44.552Z,8.80
2018-09-15T13:54:48.226Z,9.70
2018-09-15T13:57:52.149Z,9.00
2018-09-15T14:00:55.908Z,9.53
2018-09-15T14:03:59.689Z,8.53
2018-09-15T14:07:04.755Z,6.83
2018-09-15T14:10:08.626Z,9.10
2018-09-15T14:13:12.380Z,8.90
2018-09-15T14:19:32.326Z,10.37
2018-09-15T14:22:36.066Z,6.63
2018-09-15T14:25:39.872Z,5.00
2018-09-15T14:28:44.301Z,7.60
2018-09-15T14:31:52.253Z,5.67
2018-09-15T14:34:55.910Z,16.13
2018-09-15T14:37:59.629Z,7.60
2018-09-15T14:41:03.544Z,6.37
2018-09-15T14:44:07.341Z,5.77
2018-09-15T14:47:10.980Z,6.77
2018-09-15T14:50:14.859Z,7.33
2018-09-15T14:53:18.611Z,8.43
2018-09-15T14:56:22.306Z,7.97
2018-09-15T14:59:26.673Z,8.40
2018-09-15T15:02:31.145Z,8.47
2018-09-15T15:05:34.881Z,7.40
2018-09-15T15:08:39.800Z,8.13
2018-09-15T15:11:44.300Z,8.27
2018-09-15T15:14:47.976Z,7.83
2018-09-15T15:17:52.838Z,8.47
2018-09-15T15:20:56.664Z,6.90
2018-09-15T15:24:00.350Z,4.13
2018-09-15T15:27:04.083Z,6.63
2018-09-15T15:30:08.158Z,6.07
2018-09-15T15:33:11.819Z,9.40
2018-09-15T15:36:15.688Z,8.90
2018-09-15T15:39:21.295Z,6.43
2018-09-15T15:42:24.989Z,8.40
2018-09-15T15:45:29.721Z,7.30
2018-09-15T15:48:35.008Z,11.70
2018-09-15T15:51:38.905Z,19.03
2018-09-15T15:54:42.734Z,8.97
2018-09-15T15:57:46.429Z,8.40
2018-09-15T16:00:50.415Z,6.00
2018-09-15T16:03:54.137Z,5.47
2018-09-15T16:06:57.943Z,7.40
2018-09-15T16:10:01.681Z,8.80
2018-09-15T16:13:05.529Z,7.90
2018-09-15T16:16:09.319Z,13.90
2018-09-15T16:19:13.893Z,8.20
2018-09-15T16:22:17.603Z,7.73
2018-09-15T16:25:21.243Z,7.40
2018-09-15T16:28:25.310Z,8.30
2018-09-15T16:31:29.140Z,7.63
2018-09-15T16:34:33.248Z,8.50
2018-09-15T16:37:37.049Z,8.13
2018-09-15T16:40:41.090Z,8.40
2018-09-15T16:43:44.945Z,7.00
2018-09-15T16:46:48.657Z,10.73
2018-09-15T16:49:52.379Z,13.63
2018-09-15T16:52:56.210Z,10.13
2018-09-15T16:55:59.853Z,10.13
2018-09-15T16:59:03.653Z,6.07
2018-09-15T17:02:07.405Z,6.77
2018-09-15T17:05:11.243Z,9.67
2018-09-15T17:08:14.998Z,7.07
2018-09-15T17:11:18.728Z,16.53
2018-09-15T17:14:22.566Z,8.23
2018-09-15T17:17:26.245Z,5.30
2018-09-15T17:20:29.991Z,6.50
2018-09-15T17:23:37.740Z,9.03
2018-09-15T17:26:41.638Z,5.17
2018-09-15T17:29:45.595Z,5.23
2018-09-15T17:32:49.599Z,9.47
2018-09-15T17:35:53.303Z,6.53
2018-09-15T17:38:57.029Z,7.03
2018-09-15T17:42:00.819Z,6.83
2018-09-15T17:45:04.693Z,7.37
2018-09-15T17:48:08.516Z,8.33
2018-09-15T17:51:15.989Z,5.87
2018-09-15T17:54:19.796Z,5.80
2018-09-15T17:57:23.480Z,7.70
2018-09-15T18:00:27.329Z,4.60
2018-09-15T18:03:31.032Z,5.53
2018-09-15T18:06:34.720Z,11.13
2018-09-15T18:09:38.468Z,8.00
2018-09-15T18:12:42.235Z,7.13
2018-09-15T18:15:45.982Z,9.27
2018-09-15T18:18:49.735Z,10.77
2018-09-15T18:21:53.634Z,7.80
2018-09-15T18:24:57.268Z,6.70
2018-09-15T18:28:00.929Z,8.50
2018-09-15T18:31:04.642Z,7.43
2018-09-15T18:34:08.472Z,11.20
2018-09-15T18:37:12.261Z,6.47
2018-09-15T18:40:16.309Z,5.70
2018-09-15T18:43:20.126Z,5.20
2018-09-15T18:46:23.948Z,7.43
2018-09-15T18:49:27.685Z,7.07
2018-09-15T18:52:31.538Z,6.97
2018-09-15T18:55:36.074Z,9.13
2018-09-15T18:58:40.310Z,8.43
2018-09-15T19:01:44.121Z,8.30
2018-09-15T19:04:47.916Z,5.43
2018-09-15T19:07:51.535Z,8.87
2018-09-15T19:10:55.383Z,7.67
2018-09-15T19:13:59.109Z,5.53
2018-09-15T19:17:02.957Z,5.33
2018-09-15T19:20:06.922Z,6.80
2018-09-15T19:23:10.525Z,7.90
2018-09-15T19:26:14.412Z,4.93
2018-09-15T19:29:18.072Z,6.37
2018-09-15T19:32:21.762Z,5.67
2018-09-15T19:35:25.690Z,9.40
2018-09-15T19:38:29.540Z,9.20
2018-09-15T19:41:33.338Z,5.30
2018-09-15T19:44:37.841Z,6.20
2018-09-15T19:47:41.481Z,9.50
2018-09-15T19:50:45.210Z,5.83
2018-09-15T19:53:48.944Z,8.50
2018-09-15T19:56:52.893Z,10.57
2018-09-15T19:59:56.680Z,6.50
2018-09-15T20:03:00.566Z,9.27
2018-09-15T20:06:04.352Z,8.00
2018-09-15T20:09:09.314Z,9.60
2018-09-15T20:12:13.136Z,7.10
2018-09-15T20:15:23.915Z,8.07
2018-09-15T20:18:26.291Z,6.00
2018-09-15T20:21:28.611Z,8.90
2018-09-15T20:24:32.447Z,10.83
2018-09-15T20:27:36.125Z,10.77
2018-09-15T20:30:39.966Z,8.87
2018-09-15T20:33:43.856Z,10.40
2018-09-15T20:36:47.589Z,14.43
2018-09-15T20:39:51.304Z,7.83
2018-09-15T20:42:55.101Z,9.30
2018-09-15T20:45:58.885Z,12.47
2018-09-15T20:49:02.658Z,11.33
2018-09-15T20:52:06.725Z,7.10
2018-09-15T20:55:10.463Z,15.00
2018-09-15T20:58:14.256Z,10.70
2018-09-15T21:01:17.955Z,11.60
2018-09-15T21:04:21.583Z,8.47
2018-09-15T21:07:25.305Z,10.43
2018-09-15T21:10:29.135Z,8.53
2018-09-15T21:13:32.801Z,11.40
2018-09-15T21:16:36.709Z,11.43
2018-09-15T21:19:40.485Z,13.60
2018-09-15T21:22:44.109Z,9.13
2018-09-15T21:25:47.875Z,10.97
2018-09-15T21:28:51.658Z,16.03
2018-09-15T21:31:55.423Z,9.93
2018-09-15T21:34:59.115Z,10.57
2018-09-15T21:38:02.716Z,12.33
2018-09-15T21:41:06.913Z,10.03
2018-09-15T21:44:10.621Z,11.30
2018-09-15T21:47:14.384Z,8.87
2018-09-15T21:50:18.013Z,9.67
2018-09-15T21:53:21.680Z,9.73
2018-09-15T21:56:25.384Z,6.40
2018-09-15T21:59:30.799Z,9.20
2018-09-15T22:02:34.780Z,10.20
2018-09-15T22:05:38.440Z,11.83
2018-09-15T22:08:42.099Z,8.20
2018-09-15T22:11:45.803Z,6.73
2018-09-15T22:14:49.496Z,10.67
2018-09-15T22:17:54.312Z,10.33
2018-09-15T22:20:58.030Z,10.20
2018-09-15T22:24:01.709Z,10.73
2018-09-15T22:27:05.575Z,11.03
2018-09-15T22:30:09.457Z,15.30
2018-09-15T22:33:13.235Z,11.47
2018-09-15T22:36:16.898Z,15.53
2018-09-15T22:39:20.610Z,12.10
2018-09-15T22:42:24.355Z,12.20
2018-09-15T22:45:28.947Z,10.67
2018-09-15T22:48:32.714Z,9.77
2018-09-15T22:51:36.445Z,11.30
2018-09-15T22:54:40.258Z,21.33
2018-09-15T22:57:43.928Z,11.90
2018-09-15T23:00:47.534Z,17.50
2018-09-15T23:03:53.910Z,8.67
2018-09-15T23:06:57.599Z,12.13
2018-09-15T23:10:01.202Z,8.77
2018-09-15T23:13:04.867Z,11.27
2018-09-15T23:16:08.559Z,11.60
2018-09-15T23:19:12.284Z,10.37
2018-09-15T23:22:15.869Z,12.20
2018-09-15T23:25:19.469Z,11.20
2018-09-15T23:28:23.216Z,12.40
2018-09-15T23:31:26.923Z,13.70
2018-09-15T23:34:30.517Z,11.00
2018-09-15T23:37:34.199Z,9.00
2018-09-15T23:40:37.882Z,9.40
2018-09-15T23:43:41.579Z,19.80
2018-09-15T23:46:45.228Z,11.23
2018-09-15T23:49:48.867Z,10.60
2018-09-15T23:52:52.578Z,11.77
2018-09-15T23:55:56.216Z,14.47
2018-09-15T23:59:00.062Z,12.53
